Terminal Aerodrome Forecast
Issued by NWS

Home | Current Version | Previous Version | Text Only | Print | Product List | Glossary On
Versions: 1 2 3 4 5 6 7 8 9 10 11 12 13 14
000
FTUS46 KMFR 052333
TAFLMT
TAF
KLMT 052333Z 0600/0624 30011G18KT P6SM SKC
     FM060400 VRB03KT P6SM SKC
     FM061800 30008KT P6SM SCT050
     FM062200 32012G20KT P6SM BKN050=

USA.gov is the U.S. government's official web portal to all federal, state and local government web resources and services.